createdAt,value
2018-10-12T00:01:52.455Z,30.69
2018-10-12T00:04:28.143Z,30.70
2018-10-12T00:07:04.106Z,30.71
2018-10-12T00:09:40.304Z,30.71
2018-10-12T00:12:16.500Z,30.73
2018-10-12T00:14:52.751Z,30.73
2018-10-12T00:17:29.169Z,30.75
2018-10-12T00:20:04.879Z,30.74
2018-10-12T00:22:40.719Z,30.74
2018-10-12T00:25:17.804Z,30.75
2018-10-12T00:27:54.856Z,30.74
2018-10-12T00:30:33.608Z,30.75
2018-10-12T00:35:55.560Z,30.74
2018-10-12T00:44:29.378Z,30.75
2018-10-12T00:47:09.314Z,30.73
2018-10-12T00:49:47.740Z,30.73
2018-10-12T00:52:28.674Z,30.70
2018-10-12T00:55:06.306Z,30.70
2018-10-12T00:57:45.614Z,30.69
2018-10-12T01:03:03.161Z,30.68
2018-10-12T01:05:41.659Z,30.67
2018-10-12T01:08:18.848Z,30.66
2018-10-12T01:10:55.142Z,30.64
2018-10-12T01:13:33.228Z,30.64
2018-10-12T01:16:12.561Z,30.64
2018-10-12T01:18:52.287Z,30.61
2018-10-12T01:21:32.668Z,30.60
2018-10-12T01:26:55.810Z,30.59
2018-10-12T01:35:05.475Z,30.56
2018-10-12T01:37:42.709Z,30.53
2018-10-12T01:40:23.344Z,30.54
2018-10-12T01:43:01.795Z,30.50
2018-10-12T01:45:41.445Z,30.51
2018-10-12T01:48:21.951Z,30.50
2018-10-12T01:51:00.514Z,30.50
2018-10-12T01:53:42.307Z,30.48
2018-10-12T01:56:20.379Z,30.45
2018-10-12T01:58:59.268Z,30.44
2018-10-12T02:01:37.192Z,30.43
2018-10-12T02:04:15.696Z,30.42
2018-10-12T02:06:55.850Z,30.42
2018-10-12T02:09:34.099Z,30.41
2018-10-12T02:12:11.676Z,30.41
2018-10-12T02:14:50.251Z,30.39
2018-10-12T02:17:26.831Z,30.39
2018-10-12T02:20:05.802Z,30.38
2018-10-12T02:22:43.392Z,30.38
2018-10-12T02:25:22.892Z,30.34
2018-10-12T02:28:00.699Z,30.34
2018-10-12T02:33:23.414Z,30.30
2018-10-12T02:36:02.087Z,30.26
2018-10-12T02:38:41.091Z,30.24
2018-10-12T02:41:18.495Z,30.25
2018-10-12T02:43:57.395Z,30.23
2018-10-12T02:46:37.286Z,30.21
2018-10-12T02:54:36.131Z,30.19
2018-10-12T02:57:12.374Z,30.17
2018-10-12T02:59:50.104Z,30.16
2018-10-12T03:02:26.380Z,30.14
2018-10-12T03:05:02.715Z,30.13
2018-10-12T03:07:39.021Z,30.12
2018-10-12T03:10:15.385Z,30.07
2018-10-12T03:12:51.560Z,30.05
2018-10-12T03:15:27.751Z,30.05
2018-10-12T03:18:04.335Z,30.06
2018-10-12T03:20:40.874Z,30.06
2018-10-12T03:23:17.309Z,30.07
2018-10-12T03:25:55.714Z,30.05
2018-10-12T03:28:34.947Z,30.08
2018-10-12T03:31:12.119Z,30.11
2018-10-12T03:33:48.173Z,30.11
2018-10-12T03:36:28.289Z,30.14
2018-10-12T03:39:05.581Z,30.18
2018-10-12T03:41:42.419Z,30.22
2018-10-12T03:44:18.593Z,30.27
2018-10-12T03:46:57.563Z,30.28
2018-10-12T03:49:37.141Z,30.31
2018-10-12T03:52:13.576Z,30.34
2018-10-12T03:54:49.429Z,30.36
2018-10-12T03:57:26.956Z,30.36
2018-10-12T04:00:06.305Z,30.37
2018-10-12T04:02:46.245Z,30.40
2018-10-12T04:05:22.619Z,30.42
2018-10-12T04:07:58.727Z,30.42
2018-10-12T04:10:35.777Z,30.43
2018-10-12T04:15:15.151Z,30.41
2018-10-12T04:17:51.684Z,30.40
2018-10-12T04:20:27.711Z,30.37
2018-10-12T04:23:03.582Z,30.32
2018-10-12T04:25:39.578Z,30.30
2018-10-12T04:28:15.449Z,30.28
2018-10-12T04:30:53.201Z,30.28
2018-10-12T04:33:29.377Z,30.27
2018-10-12T04:36:05.363Z,30.27
2018-10-12T04:40:06.179Z,30.27
2018-10-12T04:42:42.424Z,30.31
2018-10-12T04:45:18.623Z,30.27
2018-10-12T04:47:54.786Z,30.27
2018-10-12T04:50:30.799Z,30.25
2018-10-12T04:53:06.598Z,30.24
2018-10-12T04:55:43.190Z,30.25
2018-10-12T04:58:19.417Z,30.24
2018-10-12T05:00:55.228Z,30.24
2018-10-12T05:03:31.645Z,30.23
2018-10-12T05:06:07.837Z,30.22
2018-10-12T05:08:45.075Z,30.21
2018-10-12T05:11:21.438Z,30.21
2018-10-12T05:13:57.264Z,30.21
2018-10-12T05:16:33.428Z,30.22
2018-10-12T05:19:09.802Z,30.20
2018-10-12T05:21:45.825Z,30.17
2018-10-12T05:24:21.928Z,30.17
2018-10-12T05:26:58.121Z,30.14
2018-10-12T05:29:34.147Z,30.14
2018-10-12T05:32:10.264Z,30.13
2018-10-12T05:34:46.130Z,30.14
2018-10-12T05:40:18.659Z,30.13
2018-10-12T05:42:57.217Z,30.11
2018-10-12T05:45:34.419Z,30.09
2018-10-12T05:48:24.276Z,30.09
2018-10-12T05:51:01.647Z,30.07
2018-10-12T05:53:41.209Z,30.04
2018-10-12T05:56:22.022Z,30.03
2018-10-12T05:58:58.564Z,30.04
2018-10-12T06:01:41.774Z,30.04
2018-10-12T06:04:17.571Z,30.04
2018-10-12T06:06:53.618Z,30.07
2018-10-12T06:09:29.913Z,30.04
2018-10-12T06:12:05.828Z,30.04
2018-10-12T06:14:42.364Z,30.02
2018-10-12T06:17:18.780Z,30.01
2018-10-12T06:19:56.434Z,30.00
2018-10-12T06:22:33.367Z,29.98
2018-10-12T06:25:09.641Z,29.96
2018-10-12T06:27:46.427Z,29.93
2018-10-12T06:30:22.278Z,29.91
2018-10-12T06:32:59.500Z,29.89
2018-10-12T06:35:39.857Z,29.89
2018-10-12T06:38:16.092Z,29.89
2018-10-12T06:40:52.900Z,29.86
2018-10-12T06:43:29.587Z,29.83
2018-10-12T06:46:05.590Z,29.84
2018-10-12T06:49:24.793Z,29.78
2018-10-12T06:52:00.634Z,29.81
2018-10-12T06:55:02.257Z,29.74
2018-10-12T06:57:38.464Z,29.80
2018-10-12T07:00:14.482Z,29.79
2018-10-12T07:02:50.442Z,29.78
2018-10-12T07:05:26.693Z,29.78
2018-10-12T07:08:03.469Z,29.78
2018-10-12T07:10:39.946Z,29.78
2018-10-12T07:13:17.485Z,29.77
2018-10-12T07:15:53.645Z,29.77
2018-10-12T07:18:30.873Z,29.75
2018-10-12T07:21:08.342Z,29.74
2018-10-12T07:23:44.831Z,29.73
2018-10-12T07:26:21.163Z,29.71
2018-10-12T07:31:28.445Z,29.70
2018-10-12T07:34:04.424Z,29.69
2018-10-12T07:36:40.335Z,29.69
2018-10-12T07:39:16.459Z,29.68
2018-10-12T07:41:52.429Z,29.68
2018-10-12T07:44:28.698Z,29.69
2018-10-12T07:47:04.740Z,29.70
2018-10-12T07:49:41.209Z,29.70
2018-10-12T07:52:17.397Z,29.69
2018-10-12T07:54:53.468Z,29.70
2018-10-12T07:57:34.320Z,29.70
2018-10-12T08:00:11.263Z,29.70
2018-10-12T08:02:47.462Z,29.70
2018-10-12T08:05:23.669Z,29.71
2018-10-12T08:07:59.610Z,29.70
2018-10-12T08:10:35.488Z,29.71
2018-10-12T08:13:11.400Z,29.72
2018-10-12T08:15:47.678Z,29.70
2018-10-12T08:18:23.666Z,29.69
2018-10-12T08:20:59.389Z,29.68
2018-10-12T08:23:35.646Z,29.68
2018-10-12T08:26:12.490Z,29.67
2018-10-12T08:28:48.900Z,29.64
2018-10-12T08:31:25.268Z,29.65
2018-10-12T08:34:01.220Z,29.63
2018-10-12T08:36:38.305Z,29.62
2018-10-12T08:39:16.253Z,29.61
2018-10-12T08:41:52.428Z,29.59
2018-10-12T08:44:28.447Z,29.58
2018-10-12T08:47:04.137Z,29.57
2018-10-12T08:49:40.475Z,29.54
2018-10-12T08:52:16.723Z,29.54
2018-10-12T08:54:52.429Z,29.53
2018-10-12T08:57:28.870Z,29.53
2018-10-12T09:00:05.401Z,29.53
2018-10-12T09:02:41.491Z,29.52
2018-10-12T09:05:17.678Z,29.51
2018-10-12T09:07:53.719Z,29.50
2018-10-12T09:10:29.633Z,29.49
2018-10-12T09:13:05.755Z,29.48
2018-10-12T09:15:41.509Z,29.45
2018-10-12T09:18:20.499Z,29.44
2018-10-12T09:20:56.513Z,29.44
2018-10-12T09:23:32.911Z,29.43
2018-10-12T09:26:09.509Z,29.42
2018-10-12T09:28:45.601Z,29.43
2018-10-12T09:31:21.795Z,29.40
2018-10-12T09:33:57.695Z,29.40
2018-10-12T09:36:34.554Z,29.39
2018-10-12T09:39:11.429Z,29.38
2018-10-12T09:41:47.514Z,29.37
2018-10-12T09:44:23.423Z,29.37
2018-10-12T09:47:00.707Z,29.34
2018-10-12T09:49:36.900Z,29.34
2018-10-12T09:52:13.361Z,29.29
2018-10-12T09:54:49.548Z,29.31
2018-10-12T09:57:29.849Z,29.30
2018-10-12T10:00:06.367Z,29.28
2018-10-12T10:03:50.348Z,29.26
2018-10-12T10:06:26.937Z,29.25
2018-10-12T10:09:04.403Z,29.21
2018-10-12T10:11:41.750Z,29.19
2018-10-12T10:14:17.955Z,29.17
2018-10-12T10:16:53.941Z,29.17
2018-10-12T10:19:30.047Z,29.16
2018-10-12T10:22:07.051Z,29.14
2018-10-12T10:24:43.025Z,29.14
2018-10-12T10:27:19.042Z,29.15
2018-10-12T10:29:55.280Z,29.14
2018-10-12T10:32:31.239Z,29.13
2018-10-12T10:35:07.068Z,29.12
2018-10-12T10:37:42.845Z,29.10
2018-10-12T10:40:19.026Z,29.10
2018-10-12T10:42:54.874Z,29.09
2018-10-12T10:45:30.852Z,29.09
2018-10-12T10:48:07.177Z,29.08
2018-10-12T10:50:43.050Z,29.05
2018-10-12T10:53:19.451Z,29.04
2018-10-12T10:55:56.041Z,29.04
2018-10-12T10:58:32.276Z,29.03
2018-10-12T11:01:08.402Z,29.02
2018-10-12T11:03:44.810Z,29.03
2018-10-12T11:06:21.419Z,29.03
2018-10-12T11:08:57.895Z,29.01
2018-10-12T11:11:34.050Z,29.01
2018-10-12T11:14:10.414Z,28.99
2018-10-12T11:16:46.679Z,28.99
2018-10-12T11:19:23.985Z,28.97
2018-10-12T11:22:00.189Z,28.96
2018-10-12T11:24:36.294Z,28.94
2018-10-12T11:27:12.658Z,28.93
2018-10-12T11:29:48.482Z,28.92
2018-10-12T11:32:24.709Z,28.90
2018-10-12T11:35:00.902Z,28.88
2018-10-12T11:37:36.898Z,28.85
2018-10-12T11:40:12.879Z,28.85
2018-10-12T11:43:02.694Z,28.84
2018-10-12T11:45:38.981Z,28.85
2018-10-12T11:48:15.274Z,28.84
2018-10-12T11:50:51.925Z,28.82
2018-10-12T11:53:40.818Z,28.82
2018-10-12T11:56:23.925Z,28.81
2018-10-12T11:59:04.085Z,28.79
2018-10-12T12:01:40.248Z,28.77
2018-10-12T12:04:16.356Z,28.74
2018-10-12T12:07:00.658Z,28.75
2018-10-12T12:09:37.053Z,28.73
2018-10-12T12:12:13.737Z,28.72
2018-10-12T12:14:52.169Z,28.70
2018-10-12T12:17:28.077Z,28.69
2018-10-12T12:20:04.071Z,28.68
2018-10-12T12:22:40.576Z,28.66
2018-10-12T12:25:16.753Z,28.66
2018-10-12T12:27:53.053Z,28.65
2018-10-12T12:30:29.085Z,28.63
2018-10-12T12:33:05.438Z,28.64
2018-10-12T12:35:41.639Z,28.63
2018-10-12T12:38:17.245Z,28.61
2018-10-12T12:40:53.275Z,28.60
2018-10-12T12:43:29.312Z,28.61
2018-10-12T12:46:05.249Z,28.58
2018-10-12T12:48:42.309Z,28.58
2018-10-12T12:51:18.431Z,28.57
2018-10-12T12:53:54.355Z,28.56
2018-10-12T12:56:30.993Z,28.56
2018-10-12T12:59:07.217Z,28.54
2018-10-12T13:01:43.447Z,28.52
2018-10-12T13:04:19.858Z,28.52
2018-10-12T13:06:56.363Z,28.49
2018-10-12T13:09:32.361Z,28.47
2018-10-12T13:12:08.862Z,28.46
2018-10-12T13:14:45.092Z,28.43
2018-10-12T13:17:21.279Z,28.42
2018-10-12T13:19:57.553Z,28.41
2018-10-12T13:22:34.159Z,28.40
2018-10-12T13:25:10.381Z,28.39
2018-10-12T13:27:46.483Z,28.39
2018-10-12T13:30:22.278Z,28.38
2018-10-12T13:32:58.756Z,28.37
2018-10-12T13:35:34.829Z,28.36
2018-10-12T13:38:10.862Z,28.35
2018-10-12T13:40:47.013Z,28.32
2018-10-12T13:43:23.267Z,28.32
2018-10-12T13:45:59.329Z,28.33
2018-10-12T13:48:35.461Z,28.32
2018-10-12T13:51:12.114Z,28.32
2018-10-12T13:53:48.105Z,28.31
2018-10-12T13:56:24.541Z,28.33
2018-10-12T13:59:00.771Z,28.36
2018-10-12T14:01:37.114Z,28.32
2018-10-12T14:04:13.325Z,28.25
2018-10-12T14:06:49.872Z,28.17
2018-10-12T14:09:26.345Z,28.11
2018-10-12T14:12:02.510Z,28.05
2018-10-12T14:14:39.046Z,27.97
2018-10-12T14:17:15.122Z,27.92
2018-10-12T14:19:51.493Z,27.87
2018-10-12T14:22:27.907Z,27.82
2018-10-12T14:25:04.092Z,27.79
2018-10-12T14:27:40.499Z,27.72
2018-10-12T14:30:16.847Z,27.69
2018-10-12T14:32:52.875Z,27.64
2018-10-12T14:35:29.258Z,27.63
2018-10-12T14:38:05.296Z,27.59
2018-10-12T14:40:42.044Z,27.55
2018-10-12T14:43:19.472Z,27.52
2018-10-12T14:45:56.318Z,27.49
2018-10-12T14:48:32.514Z,27.46
2018-10-12T14:51:09.759Z,27.41
2018-10-12T14:53:46.033Z,27.38
2018-10-12T14:56:22.126Z,27.37
2018-10-12T14:58:58.130Z,27.37
2018-10-12T15:01:34.134Z,27.34
2018-10-12T15:04:10.109Z,27.33
2018-10-12T15:06:46.329Z,27.31
2018-10-12T15:09:22.146Z,27.29
2018-10-12T15:11:58.182Z,27.27
2018-10-12T15:15:37.896Z,27.24
2018-10-12T15:18:14.466Z,27.24
2018-10-12T15:20:50.633Z,27.18
2018-10-12T15:23:27.317Z,27.18
2018-10-12T15:26:03.572Z,27.16
2018-10-12T15:28:40.286Z,27.18
2018-10-12T15:31:16.646Z,27.18
2018-10-12T15:33:53.295Z,27.17
2018-10-12T15:36:29.510Z,27.16
2018-10-12T15:39:05.729Z,27.15
2018-10-12T15:41:42.170Z,27.16
2018-10-12T15:44:18.322Z,27.21
2018-10-12T15:46:54.595Z,27.25
2018-10-12T15:49:31.369Z,27.26
2018-10-12T15:52:07.566Z,27.29
2018-10-12T15:54:44.019Z,27.33
2018-10-12T15:57:25.998Z,27.36
2018-10-12T16:00:02.587Z,27.40
2018-10-12T16:02:38.997Z,27.42
2018-10-12T16:05:15.276Z,27.42
2018-10-12T16:07:51.366Z,27.44
2018-10-12T16:10:27.280Z,27.46
2018-10-12T16:13:03.814Z,27.45
2018-10-12T16:15:40.337Z,27.46
2018-10-12T16:18:16.431Z,27.49
2018-10-12T16:20:53.278Z,27.50
2018-10-12T16:23:29.923Z,27.51
2018-10-12T16:26:24.489Z,27.54
2018-10-12T16:29:00.515Z,27.56
2018-10-12T16:31:37.163Z,27.59
2018-10-12T16:34:13.544Z,27.63
2018-10-12T16:36:50.523Z,27.65
2018-10-12T16:39:26.785Z,27.71
2018-10-12T16:42:03.008Z,27.69
2018-10-12T16:44:39.373Z,27.76
2018-10-12T16:47:15.162Z,27.77
2018-10-12T16:49:51.348Z,27.83
2018-10-12T16:52:27.841Z,27.86
2018-10-12T16:55:03.631Z,27.91
2018-10-12T16:57:39.635Z,27.94
2018-10-12T17:00:15.531Z,28.01
2018-10-12T17:02:51.938Z,28.04
2018-10-12T17:07:16.447Z,28.20
2018-10-12T17:09:52.786Z,28.24
2018-10-12T17:12:29.137Z,28.28
2018-10-12T17:15:04.963Z,28.32
2018-10-12T17:17:41.083Z,28.35
2018-10-12T17:20:18.073Z,28.38
2018-10-12T17:22:53.770Z,28.42
2018-10-12T17:25:30.085Z,28.44
2018-10-12T17:28:05.790Z,28.45
2018-10-12T17:30:42.305Z,28.45
2018-10-12T17:33:18.072Z,28.48
2018-10-12T17:36:17.050Z,28.46
2018-10-12T17:38:54.078Z,28.55
2018-10-12T17:41:30.182Z,28.60
2018-10-12T17:44:05.681Z,28.65
2018-10-12T17:46:41.571Z,28.67
2018-10-12T17:49:17.663Z,28.69
2018-10-12T17:51:54.157Z,28.69
2018-10-12T17:54:30.359Z,28.70
2018-10-12T17:57:07.312Z,28.71
2018-10-12T17:59:43.309Z,28.74
2018-10-12T18:02:19.689Z,28.78
2018-10-12T18:04:55.958Z,28.83
2018-10-12T18:07:32.312Z,28.87
2018-10-12T18:10:08.557Z,28.90
2018-10-12T18:12:45.169Z,28.94
2018-10-12T18:18:00.374Z,28.97
2018-10-12T18:20:36.526Z,29.04
2018-10-12T18:23:13.194Z,29.12
2018-10-12T18:25:49.988Z,29.16
2018-10-12T18:28:26.378Z,29.16
2018-10-12T18:31:02.577Z,29.20
2018-10-12T18:33:38.373Z,29.25
2018-10-12T18:36:14.528Z,29.27
2018-10-12T18:38:51.031Z,29.29
2018-10-12T18:41:27.554Z,29.36
2018-10-12T18:44:04.179Z,29.41
2018-10-12T18:46:40.374Z,29.45
2018-10-12T18:49:16.938Z,29.50
2018-10-12T18:51:53.188Z,29.49
2018-10-12T18:54:29.690Z,29.47
2018-10-12T18:57:06.108Z,29.50
2018-10-12T18:59:42.479Z,29.50
2018-10-12T19:02:18.972Z,29.53
2018-10-12T19:04:55.425Z,29.59
2018-10-12T19:07:31.937Z,29.60
2018-10-12T19:10:07.998Z,29.62
2018-10-12T19:12:44.386Z,29.62
2018-10-12T19:15:20.448Z,29.64
2018-10-12T19:17:56.390Z,29.69
2018-10-12T19:20:32.437Z,29.74
2018-10-12T19:23:08.594Z,29.78
2018-10-12T19:25:44.872Z,29.78
2018-10-12T19:28:21.215Z,29.79
2018-10-12T19:30:57.213Z,29.82
2018-10-12T19:33:33.612Z,29.82
2018-10-12T19:36:09.872Z,29.85
2018-10-12T19:38:46.038Z,29.87
2018-10-12T19:42:59.434Z,29.91
2018-10-12T19:45:35.374Z,29.93
2018-10-12T19:48:11.401Z,29.95
2018-10-12T19:50:47.577Z,29.97
2018-10-12T19:53:23.950Z,29.99
2018-10-12T19:56:00.222Z,30.01
2018-10-12T19:58:36.234Z,30.02
2018-10-12T20:01:12.602Z,30.04
2018-10-12T20:03:48.589Z,30.04
2018-10-12T20:06:25.404Z,30.05
2018-10-12T20:09:01.842Z,30.07
2018-10-12T20:11:39.050Z,30.07
2018-10-12T20:14:15.452Z,30.08
2018-10-12T20:16:51.578Z,30.08
2018-10-12T20:22:26.419Z,30.03
2018-10-12T20:25:02.413Z,30.08
2018-10-12T20:27:38.427Z,30.10
2018-10-12T20:30:14.573Z,30.12
2018-10-12T20:32:50.609Z,30.14
2018-10-12T20:35:27.371Z,30.15
2018-10-12T20:38:03.425Z,30.16
2018-10-12T20:40:39.241Z,30.17
2018-10-12T20:43:15.314Z,30.19
2018-10-12T20:45:51.426Z,30.19
2018-10-12T20:48:27.420Z,30.20
2018-10-12T20:51:03.421Z,30.21
2018-10-12T20:53:39.574Z,30.22
2018-10-12T20:56:15.862Z,30.23
2018-10-12T20:58:52.090Z,30.24
2018-10-12T21:01:28.421Z,30.25
2018-10-12T21:04:04.694Z,30.27
2018-10-12T21:06:41.052Z,30.28
2018-10-12T21:09:17.244Z,30.29
2018-10-12T21:11:53.581Z,30.29
2018-10-12T21:14:30.175Z,30.31
2018-10-12T21:17:06.214Z,30.32
2018-10-12T21:19:42.709Z,30.34
2018-10-12T21:22:19.033Z,30.34
2018-10-12T21:24:55.225Z,30.37
2018-10-12T21:27:31.033Z,30.37
2018-10-12T21:30:06.862Z,30.39
2018-10-12T21:32:42.608Z,30.40
2018-10-12T21:35:19.012Z,30.40
2018-10-12T21:37:55.788Z,30.43
2018-10-12T21:40:31.837Z,30.45
2018-10-12T21:43:08.218Z,30.47
2018-10-12T21:45:44.243Z,30.48
2018-10-12T21:48:20.380Z,30.48
2018-10-12T21:50:56.217Z,30.51
2018-10-12T21:53:32.218Z,30.53
2018-10-12T21:56:08.385Z,30.56
2018-10-12T21:58:44.905Z,30.58
2018-10-12T22:01:21.062Z,30.60
2018-10-12T22:03:57.218Z,30.64
2018-10-12T22:06:33.175Z,30.67
2018-10-12T22:09:10.946Z,30.72
2018-10-12T22:11:46.892Z,30.75
2018-10-12T22:14:22.798Z,30.79
2018-10-12T22:16:58.998Z,30.82
2018-10-12T22:19:35.222Z,30.86
2018-10-12T22:22:10.888Z,30.88
2018-10-12T22:24:47.019Z,30.92
2018-10-12T22:27:22.991Z,30.93
2018-10-12T22:29:59.434Z,30.97
2018-10-12T22:32:35.962Z,30.99
2018-10-12T22:35:12.025Z,31.04
2018-10-12T22:37:48.392Z,31.05
2018-10-12T22:40:24.646Z,31.10
2018-10-12T22:43:00.882Z,31.10
2018-10-12T22:45:36.878Z,31.13
2018-10-12T22:48:12.970Z,31.16
2018-10-12T22:50:48.898Z,31.15
2018-10-12T22:53:25.045Z,31.16
2018-10-12T22:56:01.066Z,31.19
2018-10-12T22:58:37.213Z,31.22
2018-10-12T23:01:13.700Z,31.24
2018-10-12T23:03:49.869Z,31.25
2018-10-12T23:06:25.821Z,31.26
2018-10-12T23:09:02.237Z,31.28
2018-10-12T23:11:38.733Z,31.30
2018-10-12T23:14:14.820Z,31.31
2018-10-12T23:16:51.070Z,31.33
2018-10-12T23:19:27.297Z,31.34
2018-10-12T23:22:03.101Z,31.37
2018-10-12T23:24:39.080Z,31.38
2018-10-12T23:27:15.078Z,31.39
2018-10-12T23:29:51.721Z,31.40
2018-10-12T23:32:27.899Z,31.42
2018-10-12T23:35:04.360Z,31.41
2018-10-12T23:37:40.430Z,31.43
2018-10-12T23:40:16.831Z,31.43
2018-10-12T23:42:52.754Z,31.43
2018-10-12T23:45:28.726Z,31.44
2018-10-12T23:48:05.023Z,31.44
2018-10-12T23:50:41.214Z,31.48
2018-10-12T23:53:17.985Z,31.50
2018-10-12T23:55:54.153Z,31.53
2018-10-12T23:58:30.222Z,31.54
